createdAt,value
2017-10-15T00:00:38.851Z,70.20
2017-10-15T00:03:05.106Z,70.10
2017-10-15T00:05:32.071Z,70.10
2017-10-15T00:07:58.320Z,70.10
2017-10-15T00:10:24.561Z,70.00
2017-10-15T00:12:50.775Z,70.80
2017-10-15T00:15:16.979Z,70.10
2017-10-15T00:17:43.197Z,70.00
2017-10-15T00:20:09.380Z,69.90
2017-10-15T00:22:35.641Z,69.90
2017-10-15T00:25:01.935Z,69.90
2017-10-15T00:27:28.123Z,69.90
2017-10-15T00:29:54.864Z,69.80
2017-10-15T00:32:21.090Z,69.60
2017-10-15T00:34:47.342Z,69.70
2017-10-15T00:37:13.583Z,69.70
2017-10-15T00:39:39.789Z,69.90
2017-10-15T00:42:05.976Z,69.70
2017-10-15T00:44:32.935Z,69.40
2017-10-15T00:46:59.138Z,69.30
2017-10-15T00:49:25.329Z,69.10
2017-10-15T00:51:51.535Z,69.50
2017-10-15T00:54:17.736Z,69.30
2017-10-15T00:56:44.006Z,69.20
2017-10-15T00:59:10.244Z,69.20
2017-10-15T01:01:36.551Z,68.80
2017-10-15T01:04:02.815Z,68.80
2017-10-15T01:06:29.116Z,68.60
2017-10-15T01:08:56.168Z,69.90
2017-10-15T01:11:22.527Z,69.90
2017-10-15T01:13:48.767Z,69.30
2017-10-15T01:16:15.005Z,69.30
2017-10-15T01:18:41.288Z,69.30
2017-10-15T01:21:07.520Z,69.30
2017-10-15T01:23:33.746Z,68.70
2017-10-15T01:26:00.746Z,68.20
2017-10-15T01:28:27.019Z,68.20
2017-10-15T01:30:53.340Z,68.60
2017-10-15T01:33:19.571Z,68.60
2017-10-15T01:35:45.807Z,68.90
2017-10-15T01:38:12.107Z,69.10
2017-10-15T01:40:38.353Z,69.10
2017-10-15T01:43:04.584Z,69.10
2017-10-15T01:45:30.823Z,69.20
2017-10-15T01:47:57.823Z,69.10
2017-10-15T01:50:24.066Z,69.00
2017-10-15T01:52:50.358Z,69.20
2017-10-15T01:55:16.642Z,68.70
2017-10-15T01:57:42.869Z,68.90
2017-10-15T02:00:09.903Z,69.10
2017-10-15T02:02:36.110Z,69.00
2017-10-15T02:05:03.087Z,69.00
2017-10-15T02:07:29.325Z,69.00
2017-10-15T02:09:55.674Z,69.00
2017-10-15T02:12:21.961Z,69.00
2017-10-15T02:14:48.275Z,69.40
2017-10-15T02:17:14.452Z,69.00
2017-10-15T02:19:40.622Z,69.90
2017-10-15T02:22:06.900Z,69.80
2017-10-15T02:24:33.094Z,70.00
2017-10-15T02:26:59.298Z,69.60
2017-10-15T02:29:25.546Z,69.80
2017-10-15T02:31:51.824Z,70.30
2017-10-15T02:34:18.028Z,70.20
2017-10-15T02:36:44.255Z,70.60
2017-10-15T02:39:10.487Z,70.30
2017-10-15T02:41:36.729Z,70.50
2017-10-15T02:44:03.047Z,70.20
2017-10-15T02:46:29.317Z,70.10
2017-10-15T02:48:55.523Z,70.10
2017-10-15T02:51:21.709Z,70.30
2017-10-15T02:53:47.954Z,70.00
2017-10-15T02:56:14.222Z,69.70
2017-10-15T02:58:40.490Z,69.40
2017-10-15T03:01:06.723Z,69.10
2017-10-15T03:03:32.948Z,68.80
2017-10-15T03:05:59.208Z,68.80
2017-10-15T03:08:25.397Z,69.30
2017-10-15T03:10:51.615Z,69.10
2017-10-15T03:13:17.822Z,68.90
2017-10-15T03:15:44.076Z,68.70
2017-10-15T03:18:10.304Z,69.00
2017-10-15T03:20:36.503Z,69.00
2017-10-15T03:23:02.711Z,69.30
2017-10-15T03:25:29.041Z,69.80
2017-10-15T03:27:55.269Z,69.30
2017-10-15T03:30:21.531Z,69.00
2017-10-15T03:32:48.580Z,68.90
2017-10-15T03:35:14.876Z,68.80
2017-10-15T03:37:41.318Z,68.80
2017-10-15T03:40:07.587Z,69.10
2017-10-15T03:42:33.844Z,69.20
2017-10-15T03:45:00.069Z,69.20
2017-10-15T03:47:26.337Z,68.50
2017-10-15T03:49:52.554Z,68.40
2017-10-15T03:52:18.759Z,68.30
2017-10-15T03:54:44.968Z,68.20
2017-10-15T03:57:11.158Z,68.30
2017-10-15T03:59:37.369Z,68.20
2017-10-15T04:02:03.575Z,68.30
2017-10-15T04:04:29.744Z,67.90
2017-10-15T04:06:56.651Z,68.00
2017-10-15T04:09:22.810Z,68.00
2017-10-15T04:11:48.995Z,68.20
2017-10-15T04:14:15.239Z,68.10
2017-10-15T04:16:41.539Z,68.20
2017-10-15T04:19:07.764Z,67.80
2017-10-15T04:21:34.028Z,67.90
2017-10-15T04:24:00.199Z,68.20
2017-10-15T04:26:26.409Z,68.10
2017-10-15T04:28:52.607Z,67.40
2017-10-15T04:31:18.791Z,67.90
2017-10-15T04:33:44.958Z,69.90
2017-10-15T04:36:11.238Z,69.90
2017-10-15T04:38:38.152Z,70.40
2017-10-15T04:41:04.355Z,70.30
2017-10-15T04:43:30.543Z,70.60
2017-10-15T04:45:56.807Z,70.30
2017-10-15T04:48:23.027Z,69.20
2017-10-15T04:50:49.963Z,69.40
2017-10-15T04:53:16.221Z,69.40
2017-10-15T04:55:42.446Z,70.00
2017-10-15T04:58:08.682Z,70.30
2017-10-15T05:00:34.856Z,69.60
2017-10-15T05:03:01.086Z,68.80
2017-10-15T05:05:27.311Z,68.70
2017-10-15T05:07:54.395Z,68.70
2017-10-15T05:10:20.664Z,68.60
2017-10-15T05:12:46.880Z,68.90
2017-10-15T05:15:13.117Z,68.60
2017-10-15T05:17:39.320Z,68.50
2017-10-15T05:20:06.360Z,68.60
2017-10-15T05:22:32.567Z,68.50
2017-10-15T05:24:59.521Z,68.50
2017-10-15T05:27:25.744Z,68.50
2017-10-15T05:29:51.978Z,68.20
2017-10-15T05:32:18.226Z,68.40
2017-10-15T05:34:44.426Z,68.10
2017-10-15T05:37:11.427Z,68.00
2017-10-15T05:39:37.629Z,68.00
2017-10-15T05:42:03.848Z,68.50
2017-10-15T05:44:30.057Z,68.50
2017-10-15T05:46:56.263Z,68.30
2017-10-15T05:49:22.459Z,68.40
2017-10-15T05:51:48.819Z,68.50
2017-10-15T05:54:15.007Z,68.50
2017-10-15T05:56:41.290Z,68.50
2017-10-15T05:59:07.534Z,68.70
2017-10-15T06:01:33.764Z,68.60
2017-10-15T06:04:00.019Z,68.60
2017-10-15T06:06:26.296Z,70.70
2017-10-15T06:08:52.539Z,71.70
2017-10-15T06:11:18.780Z,69.50
2017-10-15T06:13:45.723Z,65.30
2017-10-15T06:16:11.928Z,65.20
2017-10-15T06:18:38.218Z,66.30
2017-10-15T06:21:04.400Z,66.90
2017-10-15T06:23:30.609Z,66.40
2017-10-15T06:25:57.878Z,65.70
2017-10-15T06:28:24.103Z,65.80
2017-10-15T06:30:51.047Z,66.60
2017-10-15T06:33:17.999Z,67.30
2017-10-15T06:35:44.224Z,67.40
2017-10-15T06:38:10.535Z,67.60
2017-10-15T06:40:36.802Z,66.80
2017-10-15T06:43:02.999Z,67.20
2017-10-15T06:45:29.237Z,67.30
2017-10-15T06:47:56.164Z,68.10
2017-10-15T06:50:23.079Z,69.10
2017-10-15T06:52:50.111Z,68.50
2017-10-15T06:55:16.296Z,68.50
2017-10-15T06:57:42.566Z,69.30
2017-10-15T07:00:08.742Z,68.70
2017-10-15T07:02:35.053Z,69.10
2017-10-15T07:05:01.852Z,69.20
2017-10-15T07:07:28.038Z,69.50
2017-10-15T07:09:54.246Z,70.00
2017-10-15T07:12:20.478Z,70.00
2017-10-15T07:14:46.651Z,70.00
2017-10-15T07:17:12.895Z,70.30
2017-10-15T07:19:39.082Z,71.00
2017-10-15T07:22:05.282Z,70.70
2017-10-15T07:24:31.482Z,70.30
2017-10-15T07:26:57.676Z,71.00
2017-10-15T07:29:23.899Z,71.70
2017-10-15T07:31:50.105Z,72.60
2017-10-15T07:34:16.312Z,72.50
2017-10-15T07:36:42.522Z,73.40
2017-10-15T07:39:08.775Z,73.60
2017-10-15T07:41:35.071Z,74.10
2017-10-15T07:44:01.411Z,74.10
2017-10-15T07:46:27.585Z,74.30
2017-10-15T07:48:54.591Z,75.70
2017-10-15T07:51:21.106Z,75.70
2017-10-15T07:53:47.341Z,75.90
2017-10-15T07:56:13.541Z,75.80
2017-10-15T07:58:39.790Z,75.70
2017-10-15T08:01:06.416Z,75.30
2017-10-15T08:03:32.653Z,74.90
2017-10-15T08:05:58.818Z,75.40
2017-10-15T08:08:25.121Z,74.80
2017-10-15T08:10:53.774Z,74.80
2017-10-15T08:13:20.020Z,74.90
2017-10-15T08:15:46.272Z,74.90
2017-10-15T08:18:12.491Z,75.00
2017-10-15T08:20:38.700Z,75.10
2017-10-15T08:23:04.931Z,74.60
2017-10-15T08:25:31.154Z,74.60
2017-10-15T08:27:57.386Z,74.80
2017-10-15T08:30:23.612Z,74.60
2017-10-15T08:32:50.611Z,73.90
2017-10-15T08:35:16.814Z,73.90
2017-10-15T08:37:43.463Z,73.80
2017-10-15T08:40:09.680Z,73.80
2017-10-15T08:42:35.893Z,74.30
2017-10-15T08:45:02.177Z,74.30
2017-10-15T08:47:28.392Z,74.40
2017-10-15T08:49:54.679Z,74.30
2017-10-15T08:52:20.880Z,74.00
2017-10-15T08:54:47.098Z,73.80
2017-10-15T08:57:13.387Z,73.90
2017-10-15T08:59:40.401Z,73.50
2017-10-15T09:02:06.602Z,73.40
2017-10-15T09:04:32.823Z,73.20
2017-10-15T09:06:59.120Z,72.90
2017-10-15T09:09:25.488Z,73.10
2017-10-15T09:11:51.779Z,72.70
2017-10-15T09:14:18.087Z,72.20
2017-10-15T09:16:44.427Z,72.10
2017-10-15T09:19:11.415Z,71.70
2017-10-15T09:21:37.631Z,71.70
2017-10-15T09:24:03.900Z,72.00
2017-10-15T09:26:30.108Z,72.80
2017-10-15T09:28:56.345Z,71.70
2017-10-15T09:31:22.603Z,72.00
2017-10-15T09:33:48.844Z,71.50
2017-10-15T09:36:15.072Z,71.50
2017-10-15T09:38:41.271Z,71.50
2017-10-15T09:41:08.230Z,71.40
2017-10-15T09:43:34.506Z,71.30
2017-10-15T09:46:00.765Z,71.00
2017-10-15T09:48:27.072Z,70.90
2017-10-15T09:50:53.337Z,71.00
2017-10-15T09:53:19.580Z,71.30
2017-10-15T09:55:45.860Z,71.20
2017-10-15T09:58:12.014Z,70.80
2017-10-15T10:00:38.279Z,70.90
2017-10-15T10:03:04.468Z,70.80
2017-10-15T10:05:30.677Z,70.60
2017-10-15T10:07:56.931Z,70.80
2017-10-15T10:10:23.387Z,70.60
2017-10-15T10:12:49.742Z,70.80
2017-10-15T10:15:16.885Z,69.40
2017-10-15T10:17:43.290Z,69.40
2017-10-15T10:20:09.536Z,69.50
2017-10-15T10:22:35.750Z,69.50
2017-10-15T10:25:02.026Z,69.60
2017-10-15T10:27:28.276Z,70.00
2017-10-15T10:29:54.550Z,70.00
2017-10-15T10:32:20.771Z,70.60
2017-10-15T10:34:47.052Z,69.60
2017-10-15T10:37:13.282Z,69.60
2017-10-15T10:39:39.541Z,70.60
2017-10-15T10:42:05.727Z,69.90
2017-10-15T10:44:31.938Z,69.90
2017-10-15T10:46:58.274Z,69.60
2017-10-15T10:49:24.520Z,69.00
2017-10-15T10:51:50.831Z,69.20
2017-10-15T10:54:17.876Z,68.70
2017-10-15T10:56:44.068Z,68.70
2017-10-15T10:59:11.112Z,68.10
2017-10-15T11:01:38.051Z,67.80
2017-10-15T11:04:05.030Z,67.90
2017-10-15T11:06:31.244Z,67.90
2017-10-15T11:08:57.599Z,67.90
2017-10-15T11:11:23.801Z,67.90
2017-10-15T11:13:50.012Z,67.70
2017-10-15T11:16:16.275Z,67.30
2017-10-15T11:18:42.486Z,66.10
2017-10-15T11:21:08.801Z,66.10
2017-10-15T11:23:35.086Z,65.70
2017-10-15T11:26:01.411Z,65.00
2017-10-15T11:28:27.728Z,64.00
2017-10-15T11:30:54.138Z,64.20
2017-10-15T11:33:20.341Z,63.40
2017-10-15T11:35:46.602Z,63.00
2017-10-15T11:38:13.611Z,61.70
2017-10-15T11:40:39.812Z,61.70
2017-10-15T11:43:06.067Z,61.00
2017-10-15T11:45:33.039Z,59.20
2017-10-15T11:47:59.379Z,59.20
2017-10-15T11:50:25.584Z,58.10
2017-10-15T11:52:51.779Z,57.40
2017-10-15T11:55:18.040Z,56.90
2017-10-15T11:57:44.255Z,57.10
2017-10-15T12:00:10.535Z,57.40
2017-10-15T12:02:46.823Z,56.80
2017-10-15T12:05:13.020Z,56.40
2017-10-15T12:07:39.231Z,56.10
2017-10-15T12:10:05.468Z,55.40
2017-10-15T12:12:31.702Z,55.20
2017-10-15T12:14:58.065Z,55.10
2017-10-15T12:17:24.256Z,54.40
2017-10-15T12:19:50.636Z,54.50
2017-10-15T12:22:16.803Z,53.10
2017-10-15T12:24:43.083Z,52.70
2017-10-15T12:27:09.355Z,52.80
2017-10-15T12:29:35.602Z,53.10
2017-10-15T12:32:01.908Z,53.30
2017-10-15T12:34:28.894Z,53.30
2017-10-15T12:36:55.116Z,53.30
2017-10-15T12:39:21.358Z,53.70
2017-10-15T12:41:47.567Z,54.10
2017-10-15T12:44:13.780Z,54.20
2017-10-15T12:46:39.990Z,54.20
2017-10-15T12:49:06.178Z,54.80
2017-10-15T12:51:32.452Z,54.80
2017-10-15T12:53:58.683Z,55.10
2017-10-15T12:56:24.922Z,55.10
2017-10-15T12:58:51.134Z,56.00
2017-10-15T13:01:17.294Z,55.20
2017-10-15T13:03:44.206Z,55.60
2017-10-15T13:06:10.462Z,55.50
2017-10-15T13:08:36.662Z,55.30
2017-10-15T13:11:02.887Z,55.60
2017-10-15T13:13:31.331Z,55.90
2017-10-15T13:16:00.548Z,56.90
2017-10-15T13:18:26.795Z,56.40
2017-10-15T13:20:53.087Z,56.30
2017-10-15T13:23:19.395Z,56.20
2017-10-15T13:25:45.583Z,56.60
2017-10-15T13:28:11.857Z,56.20
2017-10-15T13:30:38.069Z,56.40
2017-10-15T13:33:05.105Z,56.40
2017-10-15T13:35:31.319Z,56.40
2017-10-15T13:37:57.503Z,56.70
2017-10-15T13:40:23.738Z,56.50
2017-10-15T13:42:49.944Z,56.70
2017-10-15T13:45:16.157Z,56.80
2017-10-15T13:47:42.360Z,56.80
2017-10-15T13:50:08.665Z,56.60
2017-10-15T13:52:34.931Z,56.40
2017-10-15T13:55:01.806Z,56.60
2017-10-15T13:57:28.007Z,57.10
2017-10-15T13:59:54.217Z,56.70
2017-10-15T14:02:20.414Z,56.60
2017-10-15T14:04:46.606Z,56.70
2017-10-15T14:07:13.586Z,56.70
2017-10-15T14:09:39.823Z,56.70
2017-10-15T14:12:06.127Z,57.20
2017-10-15T14:14:32.348Z,56.60
2017-10-15T14:16:58.572Z,56.70
2017-10-15T14:19:24.894Z,56.70
2017-10-15T14:21:51.350Z,56.90
2017-10-15T14:24:17.502Z,56.50
2017-10-15T14:26:43.710Z,56.60
2017-10-15T14:29:09.952Z,56.70
2017-10-15T14:31:36.203Z,56.80
2017-10-15T14:34:02.425Z,57.40
2017-10-15T14:36:28.722Z,56.70
2017-10-15T14:38:55.010Z,56.70
2017-10-15T14:41:21.241Z,56.70
2017-10-15T14:43:47.435Z,56.50
2017-10-15T14:46:13.646Z,56.60
2017-10-15T14:48:39.875Z,56.40
2017-10-15T14:51:06.150Z,56.50
2017-10-15T14:53:32.395Z,56.40
2017-10-15T14:55:59.371Z,56.40
2017-10-15T14:58:25.661Z,56.50
2017-10-15T15:00:52.634Z,56.50
2017-10-15T15:03:18.862Z,56.40
2017-10-15T15:05:45.087Z,56.60
2017-10-15T15:08:11.296Z,56.40
2017-10-15T15:10:37.526Z,56.40
2017-10-15T15:13:03.877Z,56.60
2017-10-15T15:15:30.068Z,56.80
2017-10-15T15:17:57.098Z,58.50
2017-10-15T15:20:23.400Z,58.40
2017-10-15T15:22:50.484Z,57.00
2017-10-15T15:25:16.721Z,56.90
2017-10-15T15:27:43.031Z,57.00
2017-10-15T15:30:09.273Z,57.30
2017-10-15T15:32:36.285Z,59.90
2017-10-15T15:35:02.540Z,59.90
2017-10-15T15:37:28.786Z,60.40
2017-10-15T15:39:55.865Z,61.00
2017-10-15T15:42:22.040Z,61.40
2017-10-15T15:44:48.223Z,61.70
2017-10-15T15:47:14.441Z,61.70
2017-10-15T15:49:40.647Z,62.10
2017-10-15T15:52:07.725Z,62.70
2017-10-15T15:54:34.676Z,63.80
2017-10-15T15:57:00.889Z,63.80
2017-10-15T15:59:27.160Z,64.30
2017-10-15T16:01:54.101Z,64.80
2017-10-15T16:04:21.740Z,64.30
2017-10-15T16:06:47.987Z,64.90
2017-10-15T16:09:14.250Z,65.50
2017-10-15T16:11:40.450Z,66.10
2017-10-15T16:14:06.775Z,65.50
2017-10-15T16:16:32.955Z,64.70
2017-10-15T16:18:59.260Z,64.60
2017-10-15T16:21:25.484Z,65.10
2017-10-15T16:23:51.701Z,65.40
2017-10-15T16:26:17.899Z,66.10
2017-10-15T16:28:44.208Z,66.00
2017-10-15T16:31:10.482Z,66.30
2017-10-15T16:33:36.776Z,66.40
2017-10-15T16:36:03.111Z,66.80
2017-10-15T16:38:29.328Z,67.50
2017-10-15T16:40:55.523Z,67.10
2017-10-15T16:43:21.771Z,67.20
2017-10-15T16:45:48.732Z,68.20
2017-10-15T16:48:14.899Z,68.20
2017-10-15T16:50:41.101Z,67.80
2017-10-15T16:53:08.242Z,68.00
2017-10-15T16:55:37.430Z,67.90
2017-10-15T16:58:03.661Z,69.40
2017-10-15T17:00:30.673Z,69.60
2017-10-15T17:02:57.001Z,69.60
2017-10-15T17:05:23.983Z,68.70
2017-10-15T17:07:50.436Z,68.70
2017-10-15T17:10:16.695Z,68.90
2017-10-15T17:12:44.944Z,69.60
2017-10-15T17:15:11.191Z,70.20
2017-10-15T17:17:37.464Z,70.40
2017-10-15T17:20:03.672Z,70.60
2017-10-15T17:22:30.640Z,70.90
2017-10-15T17:24:57.799Z,70.80
2017-10-15T17:27:23.996Z,70.10
2017-10-15T17:29:50.171Z,70.00
2017-10-15T17:32:17.372Z,69.60
2017-10-15T17:34:43.648Z,69.60
2017-10-15T17:37:09.916Z,69.90
2017-10-15T17:39:36.132Z,70.60
2017-10-15T17:42:02.357Z,70.40
2017-10-15T17:44:29.732Z,70.50
2017-10-15T17:46:55.990Z,70.50
2017-10-15T17:49:22.222Z,70.40
2017-10-15T17:51:49.171Z,70.90
2017-10-15T17:54:15.444Z,70.90
2017-10-15T17:56:43.271Z,70.30
2017-10-15T17:59:10.291Z,70.30
2017-10-15T18:01:36.566Z,70.10
2017-10-15T18:04:03.868Z,71.00
2017-10-15T18:06:31.165Z,71.00
2017-10-15T18:08:57.410Z,70.80
2017-10-15T18:11:23.626Z,70.60
2017-10-15T18:13:49.867Z,71.00
2017-10-15T18:16:16.866Z,70.70
2017-10-15T18:18:43.114Z,70.60
2017-10-15T18:21:09.379Z,70.60
2017-10-15T18:23:35.583Z,71.00
2017-10-15T18:26:01.835Z,70.90
2017-10-15T18:28:28.112Z,70.90
2017-10-15T18:30:54.356Z,70.80
2017-10-15T18:33:20.688Z,71.10
2017-10-15T18:35:46.961Z,70.60
2017-10-15T18:38:14.165Z,70.60
2017-10-15T18:40:40.415Z,70.30
2017-10-15T18:43:06.655Z,70.80
2017-10-15T18:45:32.900Z,70.50
2017-10-15T18:48:03.115Z,71.10
2017-10-15T18:50:30.150Z,71.00
2017-10-15T18:52:57.160Z,70.60
2017-10-15T18:55:23.425Z,70.60
2017-10-15T18:57:49.821Z,70.90
2017-10-15T19:00:17.065Z,70.40
2017-10-15T19:02:43.271Z,69.90
2017-10-15T19:05:11.277Z,70.00
2017-10-15T19:07:37.822Z,69.90
2017-10-15T19:10:04.266Z,70.30
2017-10-15T19:12:30.479Z,70.20
2017-10-15T19:14:56.710Z,70.20
2017-10-15T19:17:22.891Z,69.80
2017-10-15T19:19:49.160Z,69.70
2017-10-15T19:22:15.422Z,69.80
2017-10-15T19:24:41.675Z,69.90
2017-10-15T19:27:08.712Z,70.00
2017-10-15T19:29:34.954Z,69.60
2017-10-15T19:32:01.185Z,69.40
2017-10-15T19:34:27.601Z,69.40
2017-10-15T19:36:53.804Z,69.50
2017-10-15T19:39:20.028Z,69.90
2017-10-15T19:41:46.284Z,69.20
2017-10-15T19:44:12.517Z,69.80
2017-10-15T19:46:38.961Z,69.50
2017-10-15T19:49:05.191Z,69.40
2017-10-15T19:51:31.490Z,69.50
2017-10-15T19:53:58.163Z,69.20
2017-10-15T19:56:24.450Z,69.40
2017-10-15T19:58:50.654Z,69.50
2017-10-15T20:01:17.260Z,69.40
2017-10-15T20:03:43.708Z,69.00
2017-10-15T20:06:10.741Z,69.40
2017-10-15T20:08:36.961Z,69.30
2017-10-15T20:11:03.392Z,69.70
2017-10-15T20:13:30.127Z,69.30
2017-10-15T20:15:56.310Z,69.70
2017-10-15T20:18:23.272Z,69.20
2017-10-15T20:20:49.477Z,69.20
2017-10-15T20:23:15.751Z,69.90
2017-10-15T20:25:42.022Z,69.30
2017-10-15T20:28:08.233Z,68.90
2017-10-15T20:30:34.427Z,69.40
2017-10-15T20:33:00.688Z,69.00
2017-10-15T20:35:26.897Z,69.10
2017-10-15T20:37:53.077Z,69.40
2017-10-15T20:40:19.310Z,69.10
2017-10-15T20:42:45.551Z,69.10
2017-10-15T20:45:11.848Z,69.00
2017-10-15T20:47:38.807Z,68.90
2017-10-15T20:50:05.135Z,68.90
2017-10-15T20:52:31.340Z,68.50
2017-10-15T20:54:57.649Z,68.90
2017-10-15T20:57:23.900Z,69.90
2017-10-15T20:59:50.915Z,69.10
2017-10-15T21:02:17.102Z,69.10
2017-10-15T21:04:43.346Z,69.10
2017-10-15T21:07:09.609Z,68.90
2017-10-15T21:09:36.592Z,68.90
2017-10-15T21:12:02.881Z,68.90
2017-10-15T21:14:29.856Z,68.50
2017-10-15T21:16:56.105Z,68.50
2017-10-15T21:19:22.356Z,68.50
2017-10-15T21:21:48.575Z,68.30
2017-10-15T21:24:14.915Z,68.20
2017-10-15T21:26:41.115Z,68.00
2017-10-15T21:29:07.376Z,68.40
2017-10-15T21:31:33.632Z,68.80
2017-10-15T21:33:59.872Z,68.20
2017-10-15T21:36:26.246Z,68.50
2017-10-15T21:38:52.479Z,68.20
2017-10-15T21:41:18.782Z,68.30
2017-10-15T21:43:45.045Z,68.00
2017-10-15T21:46:11.252Z,68.10
2017-10-15T21:48:37.451Z,68.60
2017-10-15T21:51:03.795Z,68.70
2017-10-15T21:53:30.028Z,68.60
2017-10-15T21:55:57.212Z,68.20
2017-10-15T21:58:23.406Z,68.20
2017-10-15T22:00:49.609Z,68.20
2017-10-15T22:03:15.892Z,67.80
2017-10-15T22:05:42.945Z,68.90
2017-10-15T22:08:09.167Z,68.80
2017-10-15T22:10:35.422Z,68.90
2017-10-15T22:13:01.617Z,68.50
2017-10-15T22:15:27.897Z,68.90
2017-10-15T22:17:54.851Z,68.60
2017-10-15T22:20:21.143Z,68.60
2017-10-15T22:22:47.427Z,68.80
2017-10-15T22:25:13.662Z,68.40
2017-10-15T22:27:40.656Z,67.90
2017-10-15T22:30:06.897Z,67.90
2017-10-15T22:32:33.884Z,68.20
2017-10-15T22:35:00.108Z,68.20
2017-10-15T22:37:26.528Z,68.70
2017-10-15T22:39:52.780Z,68.60
2017-10-15T22:42:19.148Z,68.70
2017-10-15T22:44:45.432Z,68.60
2017-10-15T22:47:11.714Z,68.60
2017-10-15T22:49:37.972Z,68.60
2017-10-15T22:52:04.718Z,68.60
2017-10-15T22:54:31.002Z,68.30
2017-10-15T22:56:57.235Z,68.20
2017-10-15T22:59:23.603Z,69.00
2017-10-15T23:01:50.609Z,68.50
2017-10-15T23:04:16.788Z,68.40
2017-10-15T23:06:43.071Z,69.10
2017-10-15T23:09:09.371Z,68.80
2017-10-15T23:11:36.425Z,68.30
2017-10-15T23:14:02.912Z,68.30
2017-10-15T23:16:29.476Z,68.20
2017-10-15T23:18:55.671Z,67.80
2017-10-15T23:21:22.642Z,68.90
2017-10-15T23:23:48.846Z,68.90
2017-10-15T23:26:15.078Z,68.90
2017-10-15T23:28:41.321Z,68.80
2017-10-15T23:31:07.558Z,68.80
2017-10-15T23:33:34.553Z,68.80
2017-10-15T23:36:01.639Z,68.80
2017-10-15T23:38:27.855Z,68.80
2017-10-15T23:40:54.170Z,69.00
2017-10-15T23:43:20.449Z,69.20
2017-10-15T23:45:46.681Z,68.80
2017-10-15T23:48:12.984Z,68.90
2017-10-15T23:50:39.232Z,68.90
2017-10-15T23:53:05.427Z,69.00
2017-10-15T23:55:31.737Z,69.00
2017-10-15T23:57:57.969Z,69.40
